createdAt,value
2022-12-27T00:01:35.676Z,4.70
2022-12-27T00:04:07.845Z,4.70
2022-12-27T00:06:45.157Z,4.70
2022-12-27T00:09:41.366Z,4.70
2022-12-27T00:12:09.004Z,4.60
2022-12-27T00:14:43.314Z,4.60
2022-12-27T00:17:22.063Z,4.60
2022-12-27T00:19:50.771Z,4.60
2022-12-27T00:22:23.446Z,4.60
2022-12-27T00:24:51.311Z,4.50
2022-12-27T00:27:21.105Z,4.50
2022-12-27T00:30:01.577Z,4.60
2022-12-27T00:32:33.474Z,4.60
2022-12-27T00:35:08.217Z,4.60
2022-12-27T00:37:39.468Z,4.70
2022-12-27T00:40:07.029Z,4.70
2022-12-27T00:42:37.590Z,4.70
2022-12-27T00:45:29.011Z,4.70
2022-12-27T00:48:02.593Z,4.70
2022-12-27T00:53:44.622Z,4.70
2022-12-27T00:56:25.672Z,4.70
2022-12-27T00:59:26.523Z,4.70
2022-12-27T01:02:00.137Z,4.70
2022-12-27T01:04:29.670Z,4.70
2022-12-27T01:06:59.318Z,4.60
2022-12-27T01:09:34.434Z,4.60
2022-12-27T01:12:03.040Z,4.60
2022-12-27T01:14:50.549Z,4.50
2022-12-27T01:17:29.457Z,4.50
2022-12-27T01:20:14.318Z,4.50
2022-12-27T01:22:49.687Z,4.40
2022-12-27T01:25:19.087Z,4.40
2022-12-27T01:27:49.422Z,4.40
2022-12-27T01:30:23.275Z,4.40
2022-12-27T01:33:03.710Z,4.40
2022-12-27T01:35:38.019Z,4.40
2022-12-27T01:38:08.157Z,4.40
2022-12-27T01:40:36.145Z,4.40
2022-12-27T01:43:29.758Z,4.40
2022-12-27T01:46:04.811Z,4.40
2022-12-27T01:48:32.145Z,4.40
2022-12-27T01:51:02.131Z,4.40
2022-12-27T01:53:33.817Z,4.40
2022-12-27T01:56:13.451Z,4.40
2022-12-27T01:58:59.419Z,4.40
2022-12-27T02:01:41.829Z,4.40
2022-12-27T02:04:35.097Z,4.40
2022-12-27T02:07:04.732Z,4.30
2022-12-27T02:09:42.547Z,4.40
2022-12-27T02:12:14.134Z,4.30
2022-12-27T02:14:42.324Z,4.30
2022-12-27T02:17:17.848Z,4.30
2022-12-27T02:55:44.014Z,4.00
2022-12-27T02:58:44.103Z,4.00
2022-12-27T03:01:48.171Z,3.90
2022-12-27T03:04:51.934Z,3.90
2022-12-27T03:07:49.703Z,3.90
2022-12-27T03:11:25.959Z,3.90
2022-12-27T03:14:36.879Z,3.90
2022-12-27T03:17:23.174Z,3.90
2022-12-27T03:20:18.225Z,3.90
2022-12-27T03:23:04.215Z,3.90
2022-12-27T03:25:35.005Z,3.80
2022-12-27T03:28:25.367Z,3.80
2022-12-27T03:31:12.689Z,3.70
2022-12-27T03:33:39.903Z,3.70
2022-12-27T03:36:29.867Z,3.70
2022-12-27T03:39:16.840Z,3.70
2022-12-27T03:42:04.175Z,3.70
2022-12-27T03:44:33.495Z,3.70
2022-12-27T03:47:22.350Z,3.70
2022-12-27T03:49:52.883Z,3.70
2022-12-27T03:52:24.072Z,3.70
2022-12-27T03:54:57.024Z,3.70
2022-12-27T03:57:24.752Z,3.70
2022-12-27T03:59:52.241Z,3.60
2022-12-27T04:02:20.731Z,3.60
2022-12-27T04:04:50.133Z,3.50
2022-12-27T04:07:20.356Z,3.40
2022-12-27T04:10:10.317Z,3.30
2022-12-27T04:12:58.847Z,3.20
2022-12-27T04:15:48.001Z,3.10
2022-12-27T04:18:39.588Z,3.10
2022-12-27T04:21:25.378Z,3.10
2022-12-27T04:24:14.173Z,3.10
2022-12-27T04:27:00.165Z,3.10
2022-12-27T04:29:45.662Z,3.10
2022-12-27T04:32:40.491Z,3.00
2022-12-27T04:35:21.613Z,3.00
2022-12-27T04:37:58.171Z,3.00
2022-12-27T04:40:50.645Z,2.90
2022-12-27T04:43:39.838Z,2.90
2022-12-27T04:46:49.695Z,3.00
2022-12-27T04:53:12.101Z,2.90
2022-12-27T04:55:43.108Z,3.00
2022-12-27T04:58:20.484Z,3.00
2022-12-27T05:01:14.291Z,3.00
2022-12-27T05:03:50.504Z,2.90
2022-12-27T05:06:23.097Z,2.80
2022-12-27T05:09:18.590Z,2.80
2022-12-27T05:12:14.430Z,2.70
2022-12-27T05:15:02.284Z,2.70
2022-12-27T05:17:35.573Z,2.70
2022-12-27T05:20:13.899Z,2.60
2022-12-27T05:23:00.140Z,2.70
2022-12-27T05:25:39.466Z,2.60
2022-12-27T05:28:08.059Z,2.60
2022-12-27T05:30:54.339Z,2.60
2022-12-27T05:33:21.847Z,2.60
2022-12-27T05:35:52.250Z,2.60
2022-12-27T05:38:20.478Z,2.60
2022-12-27T05:40:51.766Z,2.70
2022-12-27T05:43:23.970Z,2.60
2022-12-27T05:45:52.271Z,2.70
2022-12-27T05:48:23.305Z,2.70
2022-12-27T05:50:52.987Z,2.70
2022-12-27T05:53:34.325Z,2.80
2022-12-27T05:56:09.677Z,2.80
2022-12-27T05:58:41.886Z,2.90
2022-12-27T06:01:21.539Z,3.00
2022-12-27T06:03:50.990Z,3.00
2022-12-27T06:06:21.739Z,3.00
2022-12-27T06:08:54.651Z,3.10
2022-12-27T06:14:25.945Z,3.20
2022-12-27T06:17:01.212Z,3.20
2022-12-27T06:19:32.033Z,3.30
2022-12-27T06:22:03.806Z,3.30
2022-12-27T06:27:49.974Z,3.40
2022-12-27T06:30:23.981Z,3.50
2022-12-27T06:32:57.776Z,3.60
2022-12-27T06:35:39.706Z,3.70
2022-12-27T06:40:54.873Z,4.00
2022-12-27T06:43:24.908Z,4.10
2022-12-27T06:46:06.203Z,4.20
2022-12-27T06:48:47.662Z,4.20
2022-12-27T06:51:44.021Z,4.40
2022-12-27T06:54:41.318Z,4.40
2022-12-27T06:57:22.378Z,4.50
2022-12-27T07:00:09.331Z,4.60
2022-12-27T07:02:58.101Z,4.60
2022-12-27T07:08:27.401Z,4.80
2022-12-27T07:13:53.663Z,4.80
2022-12-27T07:16:24.863Z,5.00
2022-12-27T07:18:54.784Z,5.00
2022-12-27T07:21:26.335Z,5.10
2022-12-27T07:23:53.596Z,5.20
2022-12-27T07:26:23.389Z,5.20
2022-12-27T07:29:01.957Z,5.30
2022-12-27T07:31:30.303Z,5.40
2022-12-27T07:33:57.924Z,5.40
2022-12-27T07:36:33.615Z,5.40
2022-12-27T07:39:02.787Z,5.40
2022-12-27T07:41:29.995Z,5.40
2022-12-27T07:44:16.940Z,5.50
2022-12-27T07:46:44.088Z,5.40
2022-12-27T07:49:17.312Z,5.50
2022-12-27T07:51:57.543Z,5.50
2022-12-27T07:54:30.163Z,5.50
2022-12-27T07:57:01.028Z,5.50
2022-12-27T07:59:34.354Z,5.50
2022-12-27T08:02:07.270Z,5.60
2022-12-27T08:04:45.739Z,5.70
2022-12-27T08:07:32.337Z,5.70
2022-12-27T08:10:05.534Z,5.70
2022-12-27T08:12:39.170Z,5.80
2022-12-27T08:15:28.324Z,5.90
2022-12-27T08:18:01.847Z,5.90
2022-12-27T08:20:34.598Z,6.00
2022-12-27T08:23:04.602Z,6.00
2022-12-27T08:25:51.286Z,6.00
2022-12-27T08:28:33.103Z,6.00
2022-12-27T08:31:26.133Z,6.00
2022-12-27T08:34:24.749Z,6.00
2022-12-27T08:36:56.687Z,6.10
2022-12-27T08:39:30.841Z,6.10
2022-12-27T08:42:02.283Z,6.10
2022-12-27T08:44:42.829Z,6.10
2022-12-27T08:47:19.590Z,6.20
2022-12-27T08:49:51.015Z,6.20
2022-12-27T08:52:25.838Z,6.20
2022-12-27T08:54:55.649Z,6.20
2022-12-27T08:57:33.302Z,6.30
2022-12-27T09:00:06.228Z,6.20
2022-12-27T09:02:43.872Z,6.20
2022-12-27T09:05:21.670Z,6.30
2022-12-27T09:07:48.893Z,6.40
2022-12-27T09:10:23.697Z,6.50
2022-12-27T09:12:50.979Z,6.60
2022-12-27T09:18:13.940Z,6.80
2022-12-27T09:20:41.991Z,6.90
2022-12-27T09:23:22.983Z,7.00
2022-12-27T09:25:58.804Z,7.10
2022-12-27T09:28:36.042Z,7.10
2022-12-27T09:31:06.162Z,7.20
2022-12-27T09:33:36.578Z,7.30
2022-12-27T09:36:10.679Z,7.40
2022-12-27T09:39:01.292Z,7.40
2022-12-27T09:42:45.878Z,7.40
2022-12-27T09:45:11.879Z,7.50
2022-12-27T09:47:51.158Z,7.60
2022-12-27T09:50:45.993Z,7.50
2022-12-27T09:53:26.507Z,7.60
2022-12-27T09:55:56.054Z,7.60
2022-12-27T09:58:26.865Z,7.60
2022-12-27T10:01:00.562Z,7.60
2022-12-27T10:08:06.763Z,7.50
2022-12-27T10:10:33.880Z,7.50
2022-12-27T10:13:06.821Z,7.50
2022-12-27T10:15:37.416Z,7.50
2022-12-27T10:18:34.013Z,7.50
2022-12-27T10:21:29.587Z,7.50
2022-12-27T10:23:58.125Z,7.60
2022-12-27T10:29:34.416Z,7.70
2022-12-27T10:32:05.022Z,7.80
2022-12-27T10:34:35.499Z,7.90
2022-12-27T10:37:05.321Z,7.90
2022-12-27T10:39:37.744Z,8.00
2022-12-27T10:42:29.284Z,8.10
2022-12-27T10:45:24.573Z,8.20
2022-12-27T10:48:20.200Z,8.30
2022-12-27T10:50:52.132Z,8.40
2022-12-27T10:53:41.732Z,8.40
2022-12-27T10:59:28.938Z,8.60
2022-12-27T11:02:05.571Z,8.70
2022-12-27T11:04:32.832Z,8.80
2022-12-27T11:07:09.308Z,8.80
2022-12-27T11:10:07.679Z,8.80
2022-12-27T11:15:38.307Z,8.80
2022-12-27T11:18:15.124Z,8.80
2022-12-27T11:21:27.563Z,8.80
2022-12-27T11:24:09.050Z,8.80
2022-12-27T11:26:53.732Z,8.80
2022-12-27T11:29:34.432Z,8.80
2022-12-27T11:32:06.530Z,8.90
2022-12-27T11:34:44.974Z,8.90
2022-12-27T11:37:25.022Z,8.90
2022-12-27T11:40:13.183Z,8.80
2022-12-27T11:42:49.278Z,8.80
2022-12-27T11:45:23.684Z,8.80
2022-12-27T11:48:02.972Z,8.80
2022-12-27T11:50:48.947Z,8.80
2022-12-27T11:53:54.210Z,8.80
2022-12-27T11:59:22.971Z,8.90
2022-12-27T12:02:03.631Z,8.80
2022-12-27T12:04:35.624Z,8.90
2022-12-27T12:07:09.867Z,8.90
2022-12-27T12:10:09.601Z,8.90
2022-12-27T12:13:01.749Z,8.90
2022-12-27T12:15:49.172Z,9.00
2022-12-27T12:18:21.865Z,9.00
2022-12-27T12:21:13.624Z,9.10
2022-12-27T12:23:59.478Z,9.20
2022-12-27T12:26:30.670Z,9.40
2022-12-27T12:29:40.411Z,9.60
2022-12-27T12:32:18.152Z,9.70
2022-12-27T12:35:26.390Z,9.70
2022-12-27T12:41:13.566Z,9.80
2022-12-27T12:44:04.485Z,9.70
2022-12-27T12:55:41.255Z,9.90
2022-12-27T12:59:05.798Z,10.00
2022-12-27T13:02:21.454Z,10.10
2022-12-27T13:05:21.280Z,10.10
2022-12-27T13:17:48.673Z,10.00
2022-12-27T13:23:58.346Z,9.90
2022-12-27T13:30:06.274Z,9.90
2022-12-27T13:33:32.453Z,9.90
2022-12-27T13:36:44.913Z,9.90
2022-12-27T13:39:44.967Z,9.90
2022-12-27T13:43:22.647Z,9.90
2022-12-27T13:57:10.991Z,10.10
2022-12-27T14:04:28.803Z,10.30
2022-12-27T14:04:36.098Z,10.40
2022-12-27T14:16:13.036Z,10.20
2022-12-27T14:36:07.550Z,10.10
2022-12-27T15:05:21.699Z,9.70
2022-12-27T15:09:03.867Z,9.70
2022-12-27T15:13:05.806Z,9.70
2022-12-27T15:24:55.987Z,9.60
2022-12-27T15:32:17.755Z,9.60
2022-12-27T15:39:38.845Z,9.60
2022-12-27T15:47:13.238Z,9.50
2022-12-27T15:50:01.927Z,9.60
2022-12-27T16:01:39.765Z,9.60
2022-12-27T16:09:32.543Z,9.50
2022-12-27T16:12:49.545Z,9.40
2022-12-27T16:24:49.748Z,9.20
2022-12-27T16:28:24.375Z,9.20
2022-12-27T16:31:45.602Z,9.20
2022-12-27T16:38:24.124Z,9.10
2022-12-27T16:41:30.511Z,9.00
2022-12-27T16:44:02.534Z,9.00
2022-12-27T16:47:23.848Z,9.00
2022-12-27T16:50:44.262Z,9.00
2022-12-27T16:53:46.644Z,9.00
2022-12-27T16:56:35.708Z,9.10
2022-12-27T17:02:53.319Z,9.00
2022-12-27T17:05:34.701Z,9.00
2022-12-27T17:08:05.821Z,9.00
2022-12-27T17:10:42.673Z,9.00
2022-12-27T17:13:52.645Z,8.90
2022-12-27T17:16:43.695Z,9.00
2022-12-27T17:19:42.882Z,9.00
2022-12-27T17:22:17.998Z,9.00
2022-12-27T17:24:51.409Z,8.90
2022-12-27T17:28:06.264Z,9.00
2022-12-27T17:31:24.803Z,9.00
2022-12-27T17:34:40.094Z,9.00
2022-12-27T17:37:17.871Z,8.90
2022-12-27T17:40:07.126Z,8.80
2022-12-27T17:43:19.040Z,8.80
2022-12-27T17:46:12.412Z,8.80
2022-12-27T17:48:39.769Z,8.70
2022-12-27T17:51:16.925Z,8.70
2022-12-27T17:54:12.773Z,8.70
2022-12-27T17:57:07.502Z,8.70
2022-12-27T17:59:35.417Z,8.70
2022-12-27T18:02:21.909Z,8.60
2022-12-27T18:04:55.503Z,8.60
2022-12-27T18:07:29.936Z,8.70
2022-12-27T18:09:58.336Z,8.70
2022-12-27T18:12:37.293Z,8.60
2022-12-27T18:15:23.361Z,8.60
2022-12-27T18:17:52.401Z,8.60
2022-12-27T18:20:25.986Z,8.60
2022-12-27T18:23:16.902Z,8.50
2022-12-27T18:25:44.413Z,8.50
2022-12-27T18:28:32.985Z,8.50
2022-12-27T18:31:23.033Z,8.50
2022-12-27T18:33:59.040Z,8.50
2022-12-27T18:36:39.339Z,8.50
2022-12-27T18:39:15.712Z,8.50
2022-12-27T18:41:48.966Z,8.50
2022-12-27T18:44:26.790Z,8.50
2022-12-27T18:46:55.686Z,8.40
2022-12-27T18:49:30.483Z,8.40
2022-12-27T18:51:57.772Z,8.40
2022-12-27T18:54:28.407Z,8.40
2022-12-27T18:56:57.038Z,8.40
2022-12-27T18:59:29.113Z,8.40
2022-12-27T19:01:57.688Z,8.30
2022-12-27T19:04:29.338Z,8.30
2022-12-27T19:07:15.009Z,8.20
2022-12-27T19:09:52.267Z,8.20
2022-12-27T19:12:35.690Z,8.20
2022-12-27T19:15:05.120Z,8.10
2022-12-27T19:17:33.014Z,8.10
2022-12-27T19:20:05.156Z,8.10
2022-12-27T19:22:48.366Z,8.10
2022-12-27T19:25:24.576Z,8.10
2022-12-27T19:28:09.846Z,8.10
2022-12-27T19:30:41.448Z,8.10
2022-12-27T19:33:17.183Z,8.10
2022-12-27T19:35:50.439Z,8.10
2022-12-27T19:38:25.140Z,8.10
2022-12-27T19:40:59.476Z,8.20
2022-12-27T19:43:49.228Z,8.20
2022-12-27T19:46:27.144Z,8.20
2022-12-27T19:51:52.304Z,8.20
2022-12-27T19:54:23.295Z,8.30
2022-12-27T19:56:51.093Z,8.30
2022-12-27T19:59:40.823Z,8.30
2022-12-27T20:02:13.283Z,8.30
2022-12-27T20:08:02.630Z,8.30
2022-12-27T20:10:35.171Z,8.30
2022-12-27T20:13:17.220Z,8.30
2022-12-27T20:16:06.174Z,8.40
2022-12-27T20:22:48.604Z,8.40
2022-12-27T20:25:31.748Z,8.50
2022-12-27T20:28:15.174Z,8.50
2022-12-27T20:30:49.421Z,8.50
2022-12-27T20:33:34.344Z,8.60
2022-12-27T20:36:18.011Z,8.60
2022-12-27T20:42:04.352Z,8.60
2022-12-27T20:48:02.008Z,8.60
2022-12-27T20:50:44.360Z,8.60
2022-12-27T20:53:33.666Z,8.60
2022-12-27T20:56:40.007Z,8.70
2022-12-27T21:02:21.777Z,8.70
2022-12-27T21:06:20.450Z,8.70
2022-12-27T21:08:58.353Z,8.70
2022-12-27T21:15:01.209Z,8.70
2022-12-27T21:17:30.979Z,8.70
2022-12-27T21:20:33.623Z,8.70
2022-12-27T21:23:18.834Z,8.70
2022-12-27T21:30:11.794Z,8.70
2022-12-27T21:33:19.088Z,8.70
2022-12-27T21:37:50.351Z,8.70
2022-12-27T21:40:18.989Z,8.70
2022-12-27T21:43:02.414Z,8.60
2022-12-27T21:45:46.553Z,8.70
2022-12-27T21:49:00.824Z,8.80
2022-12-27T21:52:47.617Z,8.70
2022-12-27T21:54:54.589Z,8.70
2022-12-27T21:57:33.317Z,8.70
2022-12-27T22:00:44.158Z,8.70
2022-12-27T22:03:32.579Z,8.80
2022-12-27T22:06:09.595Z,8.70
2022-12-27T22:11:52.121Z,8.80
2022-12-27T22:17:51.316Z,8.80
2022-12-27T22:20:51.700Z,8.80
2022-12-27T22:23:34.198Z,8.80
2022-12-27T22:26:45.819Z,8.90
2022-12-27T22:29:38.031Z,8.90
2022-12-27T22:32:12.062Z,8.90
2022-12-27T22:38:20.573Z,9.00
2022-12-27T22:41:04.374Z,9.00
2022-12-27T22:43:54.238Z,9.00
2022-12-27T22:47:59.120Z,9.10
2022-12-27T22:51:27.150Z,9.10
2022-12-27T22:53:56.461Z,9.00
2022-12-27T22:56:58.993Z,9.10
2022-12-27T22:59:28.237Z,9.10
2022-12-27T23:02:38.769Z,9.20
2022-12-27T23:08:57.114Z,9.30
2022-12-27T23:11:40.213Z,9.40
2022-12-27T23:14:40.113Z,9.40
2022-12-27T23:17:28.353Z,9.40
2022-12-27T23:20:24.859Z,9.50
2022-12-27T23:23:00.786Z,9.50
2022-12-27T23:26:09.627Z,9.50
2022-12-27T23:32:33.619Z,9.60
2022-12-27T23:35:30.333Z,9.60
2022-12-27T23:38:11.861Z,9.60
2022-12-27T23:43:53.412Z,9.70
2022-12-27T23:49:38.586Z,9.70
2022-12-27T23:56:25.008Z,9.80
